createdAt,value
2023-04-13T00:02:45.300Z,1.25
2023-04-13T00:05:46.875Z,1.40
2023-04-13T00:08:48.310Z,1.38
2023-04-13T00:11:49.573Z,0.63
2023-04-13T00:14:50.949Z,1.33
2023-04-13T00:17:54.098Z,1.27
2023-04-13T00:20:55.455Z,1.63
2023-04-13T00:23:56.932Z,0.93
2023-04-13T00:26:58.471Z,1.15
2023-04-13T00:29:59.797Z,1.48
2023-04-13T00:33:02.659Z,0.65
2023-04-13T00:36:04.041Z,1.35
2023-04-13T00:39:06.243Z,1.73
2023-04-13T00:42:11.002Z,1.83
2023-04-13T00:45:13.667Z,0.90
2023-04-13T00:48:15.923Z,1.38
2023-04-13T00:51:17.998Z,0.93
2023-04-13T00:54:19.322Z,1.15
2023-04-13T00:57:20.978Z,1.85
2023-04-13T01:00:24.496Z,1.65
2023-04-13T01:03:25.874Z,0.93
2023-04-13T01:06:31.849Z,0.85
2023-04-13T01:09:47.876Z,1.58
2023-04-13T01:13:04.386Z,1.63
2023-04-13T01:16:05.862Z,1.10
2023-04-13T01:19:10.719Z,1.85
2023-04-13T01:25:51.265Z,1.50
2023-04-13T01:28:53.025Z,1.65
2023-04-13T01:31:55.017Z,1.67
2023-04-13T01:34:56.408Z,1.75
2023-04-13T01:37:57.905Z,1.88
2023-04-13T01:40:59.194Z,1.60
2023-04-13T01:44:00.945Z,1.60
2023-04-13T01:47:15.779Z,0.93
2023-04-13T01:50:25.724Z,1.38
2023-04-13T01:53:31.484Z,1.33
2023-04-13T01:56:32.796Z,0.82
2023-04-13T01:59:34.555Z,1.33
2023-04-13T02:02:36.009Z,0.82
2023-04-13T02:05:38.200Z,1.20
2023-04-13T02:08:40.286Z,0.75
2023-04-13T02:11:41.942Z,1.13
2023-04-13T02:14:43.543Z,0.77
2023-04-13T02:17:45.024Z,0.95
2023-04-13T02:20:46.394Z,1.58
2023-04-13T02:23:47.705Z,0.93
2023-04-13T02:26:49.253Z,1.75
2023-04-13T02:29:51.455Z,0.80
2023-04-13T02:32:53.390Z,0.80
2023-04-13T02:35:55.828Z,0.82
2023-04-13T02:38:57.069Z,0.68
2023-04-13T02:41:59.124Z,0.80
2023-04-13T02:45:00.421Z,0.82
2023-04-13T02:48:01.945Z,1.50
2023-04-13T02:51:03.375Z,0.75
2023-04-13T02:54:04.972Z,1.88
2023-04-13T02:57:06.290Z,1.02
2023-04-13T03:00:10.362Z,0.73
2023-04-13T03:03:11.700Z,0.52
2023-04-13T03:06:13.519Z,1.38
2023-04-13T03:09:16.129Z,1.48
2023-04-13T03:12:17.595Z,0.93
2023-04-13T03:15:19.080Z,0.75
2023-04-13T03:18:20.356Z,0.70
2023-04-13T03:21:22.553Z,0.93
2023-04-13T03:24:27.276Z,2.85
2023-04-13T03:27:28.600Z,0.80
2023-04-13T03:30:29.850Z,1.38
2023-04-13T03:33:31.302Z,1.08
2023-04-13T03:36:32.820Z,1.20
2023-04-13T03:39:34.333Z,0.82
2023-04-13T03:42:35.720Z,1.20
2023-04-13T03:45:36.978Z,1.60
2023-04-13T03:48:38.379Z,1.17
2023-04-13T03:51:39.731Z,1.33
2023-04-13T03:54:41.431Z,2.78
2023-04-13T03:57:42.768Z,1.10
2023-04-13T04:00:44.292Z,0.60
2023-04-13T04:03:45.674Z,1.48
2023-04-13T04:06:46.956Z,0.82
2023-04-13T04:09:48.247Z,0.73
2023-04-13T04:12:49.541Z,1.02
2023-04-13T04:15:51.150Z,1.02
2023-04-13T04:18:52.398Z,1.70
2023-04-13T04:21:53.628Z,1.70
2023-04-13T04:24:54.891Z,1.30
2023-04-13T04:27:57.733Z,0.93
2023-04-13T04:31:01.158Z,1.60
2023-04-13T04:34:02.540Z,1.45
2023-04-13T04:40:10.132Z,0.88
2023-04-13T04:43:14.922Z,1.10
2023-04-13T04:46:16.911Z,0.85
2023-04-13T04:49:21.402Z,0.63
2023-04-13T04:52:24.634Z,1.48
2023-04-13T04:55:26.481Z,0.65
2023-04-13T04:58:27.796Z,0.70
2023-04-13T05:01:29.824Z,0.93
2023-04-13T05:04:31.529Z,0.90
2023-04-13T05:07:32.880Z,1.60
2023-04-13T05:10:34.136Z,1.30
2023-04-13T05:13:35.620Z,1.35
2023-04-13T05:16:37.306Z,1.65
2023-04-13T05:19:39.198Z,1.35
2023-04-13T05:22:42.040Z,0.95
2023-04-13T05:25:43.422Z,1.77
2023-04-13T05:28:44.801Z,0.63
2023-04-13T05:31:46.611Z,1.10
2023-04-13T05:34:48.127Z,1.17
2023-04-13T05:37:50.034Z,1.33
2023-04-13T05:40:52.470Z,0.82
2023-04-13T05:43:53.811Z,1.05
2023-04-13T05:46:55.120Z,0.80
2023-04-13T05:49:56.398Z,1.95
2023-04-13T05:52:57.681Z,0.80
2023-04-13T05:55:58.976Z,0.82
2023-04-13T05:59:00.973Z,1.27
2023-04-13T06:02:03.048Z,0.73
2023-04-13T06:05:05.115Z,1.38
2023-04-13T06:08:08.870Z,1.73
2023-04-13T06:11:10.285Z,1.38
2023-04-13T06:14:11.575Z,1.05
2023-04-13T06:17:12.806Z,1.50
2023-04-13T06:20:15.276Z,1.20
2023-04-13T06:23:16.561Z,0.95
2023-04-13T06:26:17.986Z,0.73
2023-04-13T06:29:19.317Z,1.25
2023-04-13T06:32:20.975Z,1.05
2023-04-13T06:35:23.100Z,0.85
2023-04-13T06:38:24.547Z,1.50
2023-04-13T06:41:27.225Z,1.02
2023-04-13T06:44:28.510Z,0.75
2023-04-13T06:47:29.808Z,0.85
2023-04-13T06:50:31.076Z,1.02
2023-04-13T06:53:32.404Z,1.00
2023-04-13T06:56:33.920Z,1.58
2023-04-13T06:59:35.178Z,1.52
2023-04-13T07:02:37.022Z,0.77
2023-04-13T07:05:38.891Z,1.08
2023-04-13T07:08:40.235Z,1.02
2023-04-13T07:11:41.778Z,0.80
2023-04-13T07:14:43.209Z,1.48
2023-04-13T07:17:44.537Z,1.00
2023-04-13T07:20:47.292Z,0.68
2023-04-13T07:23:48.745Z,1.50
2023-04-13T07:26:50.222Z,1.20
2023-04-13T07:29:52.337Z,1.85
2023-04-13T07:32:53.772Z,1.15
2023-04-13T07:35:55.613Z,1.48
2023-04-13T07:38:57.187Z,0.93
2023-04-13T07:41:58.889Z,1.60
2023-04-13T07:45:00.392Z,1.58
2023-04-13T07:48:01.880Z,1.13
2023-04-13T07:51:03.366Z,1.60
2023-04-13T07:54:04.758Z,3.15
2023-04-13T07:57:06.209Z,1.17
2023-04-13T08:00:08.237Z,1.80
2023-04-13T08:03:09.714Z,0.85
2023-04-13T08:06:11.454Z,1.13
2023-04-13T08:09:12.718Z,0.82
2023-04-13T08:12:14.015Z,0.65
2023-04-13T08:15:15.365Z,0.90
2023-04-13T08:18:16.815Z,0.93
2023-04-13T08:21:18.958Z,1.42
2023-04-13T08:24:23.129Z,0.85
2023-04-13T08:27:24.916Z,0.98
2023-04-13T08:30:26.355Z,1.02
2023-04-13T08:33:27.864Z,1.17
2023-04-13T08:36:29.233Z,0.80
2023-04-13T08:39:30.592Z,1.50
2023-04-13T08:42:31.923Z,1.52
2023-04-13T08:45:34.136Z,1.02
2023-04-13T08:48:52.855Z,0.82
2023-04-13T08:51:57.132Z,1.10
2023-04-13T08:55:00.829Z,0.90
2023-04-13T08:58:03.654Z,1.02
2023-04-13T09:01:06.332Z,0.75
2023-04-13T09:04:10.499Z,1.20
2023-04-13T09:07:13.014Z,1.45
2023-04-13T09:10:16.401Z,0.95
2023-04-13T09:13:18.457Z,1.23
2023-04-13T09:16:19.889Z,1.33
2023-04-13T09:19:33.507Z,1.13
2023-04-13T09:22:35.176Z,0.98
2023-04-13T09:25:37.560Z,1.30
2023-04-13T09:28:48.066Z,1.30
2023-04-13T09:31:49.401Z,0.85
2023-04-13T09:34:57.883Z,1.02
2023-04-13T09:38:01.890Z,1.10
2023-04-13T09:41:03.230Z,0.95
2023-04-13T09:44:18.650Z,0.82
2023-04-13T09:47:19.980Z,1.15
2023-04-13T09:50:22.022Z,0.85
2023-04-13T09:53:23.341Z,1.20
2023-04-13T09:56:27.219Z,1.20
2023-04-13T09:59:29.564Z,1.17
2023-04-13T10:02:31.283Z,0.80
2023-04-13T10:08:42.643Z,0.75
2023-04-13T10:11:45.608Z,1.50
2023-04-13T10:14:48.732Z,0.90
2023-04-13T10:17:56.271Z,1.17
2023-04-13T10:20:58.728Z,1.08
2023-04-13T10:24:00.450Z,1.30
2023-04-13T10:27:10.382Z,1.17
2023-04-13T10:30:18.093Z,0.75
2023-04-13T10:33:20.434Z,0.80
2023-04-13T10:36:22.323Z,0.90
2023-04-13T10:39:28.044Z,1.00
2023-04-13T10:42:50.833Z,0.85
2023-04-13T10:46:05.857Z,0.77
2023-04-13T10:49:08.106Z,1.02
2023-04-13T10:52:10.187Z,0.63
2023-04-13T10:55:13.376Z,1.00
2023-04-13T10:58:15.794Z,0.80
2023-04-13T11:01:17.212Z,0.90
2023-04-13T11:04:18.973Z,1.08
2023-04-13T11:07:22.832Z,1.10
2023-04-13T11:10:25.803Z,1.02
2023-04-13T11:13:28.982Z,0.90
2023-04-13T11:16:30.468Z,1.00
2023-04-13T11:19:31.834Z,0.75
2023-04-13T11:22:35.626Z,1.00
2023-04-13T11:25:36.898Z,1.00
2023-04-13T11:28:40.143Z,0.90
2023-04-13T11:31:42.156Z,1.50
2023-04-13T11:34:43.579Z,1.00
2023-04-13T11:37:49.495Z,0.75
2023-04-13T11:40:54.877Z,0.98
2023-04-13T11:44:01.911Z,1.10
2023-04-13T11:47:03.724Z,0.90
2023-04-13T11:50:05.515Z,0.77
2023-04-13T11:53:08.071Z,1.33
2023-04-13T11:56:09.416Z,1.00
2023-04-13T11:59:10.773Z,0.95
2023-04-13T12:02:20.886Z,1.02
2023-04-13T12:05:25.380Z,1.42
2023-04-13T12:08:28.185Z,1.05
2023-04-13T12:11:42.159Z,1.13
2023-04-13T12:15:08.461Z,1.58
2023-04-13T12:18:15.774Z,1.60
2023-04-13T12:21:20.414Z,0.88
2023-04-13T12:24:32.715Z,1.58
2023-04-13T12:27:39.516Z,1.17
2023-04-13T12:30:40.863Z,0.73
2023-04-13T12:33:42.153Z,1.45
2023-04-13T12:36:43.396Z,0.80
2023-04-13T12:39:44.679Z,1.10
2023-04-13T12:42:46.666Z,0.80
2023-04-13T12:45:47.992Z,0.90
2023-04-13T12:48:49.329Z,0.90
2023-04-13T12:51:50.803Z,1.40
2023-04-13T12:54:52.075Z,1.10
2023-04-13T12:57:53.359Z,1.48
2023-04-13T13:00:55.079Z,1.65
2023-04-13T13:03:56.496Z,0.80
2023-04-13T13:06:59.285Z,0.80
2023-04-13T13:10:01.985Z,1.42
2023-04-13T13:13:04.029Z,0.80
2023-04-13T13:16:05.492Z,1.67
2023-04-13T13:19:06.893Z,0.63
2023-04-13T13:22:08.164Z,1.38
2023-04-13T13:25:09.705Z,1.02
2023-04-13T13:28:14.519Z,0.90
2023-04-13T13:31:16.782Z,0.85
2023-04-13T13:34:18.257Z,1.00
2023-04-13T13:37:19.536Z,1.05
2023-04-13T13:40:21.185Z,0.65
2023-04-13T13:43:22.602Z,0.80
2023-04-13T13:46:24.146Z,0.68
2023-04-13T13:49:25.553Z,0.95
2023-04-13T13:52:26.876Z,0.77
2023-04-13T13:55:28.321Z,1.05
2023-04-13T13:58:29.745Z,0.90
2023-04-13T14:01:31.411Z,1.38
2023-04-13T14:04:32.917Z,0.90
2023-04-13T14:07:34.207Z,0.82
2023-04-13T14:10:35.920Z,0.70
2023-04-13T14:13:37.227Z,1.33
2023-04-13T14:16:38.492Z,0.80
2023-04-13T14:19:39.750Z,0.90
2023-04-13T14:22:44.220Z,0.77
2023-04-13T14:25:45.537Z,0.70
2023-04-13T14:28:47.032Z,0.80
2023-04-13T14:31:48.692Z,0.95
2023-04-13T14:34:50.058Z,0.80
2023-04-13T14:37:52.539Z,1.40
2023-04-13T14:40:53.858Z,0.82
2023-04-13T14:43:55.270Z,0.70
2023-04-13T14:46:57.050Z,0.80
2023-04-13T14:49:58.430Z,0.80
2023-04-13T14:52:59.701Z,1.40
2023-04-13T14:56:01.314Z,0.77
2023-04-13T14:59:03.260Z,0.73
2023-04-13T15:02:06.376Z,1.25
2023-04-13T15:05:08.778Z,0.93
2023-04-13T15:08:11.760Z,0.90
2023-04-13T15:11:13.070Z,0.70
2023-04-13T15:14:14.357Z,0.85
2023-04-13T15:17:15.707Z,0.73
2023-04-13T15:20:17.238Z,0.93
2023-04-13T15:23:20.067Z,1.20
2023-04-13T15:26:23.730Z,1.13
2023-04-13T15:29:26.956Z,1.20
2023-04-13T15:32:29.208Z,1.02
2023-04-13T15:35:31.084Z,1.15
2023-04-13T15:38:32.408Z,1.02
2023-04-13T15:41:33.773Z,0.88
2023-04-13T15:44:35.059Z,0.80
2023-04-13T15:47:36.778Z,1.58
2023-04-13T15:50:38.173Z,0.95
2023-04-13T15:53:39.433Z,0.68
2023-04-13T15:56:41.016Z,0.63
2023-04-13T15:59:42.420Z,0.82
2023-04-13T16:02:43.783Z,1.00
2023-04-13T16:05:48.492Z,1.17
2023-04-13T16:08:49.821Z,1.02
2023-04-13T16:11:54.609Z,0.73
2023-04-13T16:14:59.296Z,1.42
2023-04-13T16:21:03.649Z,2.40
2023-04-13T16:24:06.841Z,1.05
2023-04-13T16:27:08.648Z,0.75
2023-04-13T16:30:13.307Z,1.10
2023-04-13T16:36:15.987Z,1.48
2023-04-13T16:39:17.340Z,0.85
2023-04-13T16:42:18.569Z,1.63
2023-04-13T16:45:20.296Z,1.00
2023-04-13T16:48:23.577Z,1.00
2023-04-13T16:51:26.973Z,0.88
2023-04-13T16:54:28.254Z,0.93
2023-04-13T16:57:29.576Z,1.05
2023-04-13T17:00:30.996Z,2.05
2023-04-13T17:03:32.458Z,1.20
2023-04-13T17:06:37.728Z,2.10
2023-04-13T17:09:39.093Z,1.02
2023-04-13T17:12:40.461Z,1.52
2023-04-13T17:15:42.141Z,1.80
2023-04-13T17:18:44.172Z,1.92
2023-04-13T17:21:45.614Z,1.00
2023-04-13T17:24:46.965Z,0.98
2023-04-13T17:27:48.253Z,2.08
2023-04-13T17:30:49.909Z,1.33
2023-04-13T17:33:51.343Z,1.00
2023-04-13T17:36:52.672Z,1.50
2023-04-13T17:39:53.974Z,1.15
2023-04-13T17:42:55.682Z,1.27
2023-04-13T17:45:57.068Z,1.05
2023-04-13T17:48:58.839Z,1.98
2023-04-13T17:52:00.620Z,1.67
2023-04-13T17:55:01.914Z,1.10
2023-04-13T17:58:03.665Z,2.00
2023-04-13T18:01:06.583Z,0.82
2023-04-13T18:04:09.761Z,1.73
2023-04-13T18:07:11.379Z,1.60
2023-04-13T18:10:13.367Z,1.35
2023-04-13T18:13:14.700Z,0.95
2023-04-13T18:16:16.124Z,1.75
2023-04-13T18:19:17.549Z,2.08
2023-04-13T18:22:18.857Z,1.65
2023-04-13T18:25:20.536Z,1.30
2023-04-13T18:28:21.883Z,1.13
2023-04-13T18:31:23.471Z,0.82
2023-04-13T18:34:24.936Z,0.82
2023-04-13T18:37:26.184Z,2.20
2023-04-13T18:40:27.427Z,1.73
2023-04-13T18:43:28.714Z,1.83
2023-04-13T18:46:30.228Z,1.42
2023-04-13T18:49:31.565Z,1.73
2023-04-13T18:52:32.917Z,1.60
2023-04-13T18:55:35.035Z,1.85
2023-04-13T18:58:36.377Z,2.33
2023-04-13T19:01:37.758Z,1.25
2023-04-13T19:04:39.231Z,2.22
2023-04-13T19:07:44.527Z,1.30
2023-04-13T19:10:46.063Z,1.73
2023-04-13T19:13:48.087Z,2.53
2023-04-13T19:16:52.295Z,2.78
2023-04-13T19:19:54.042Z,1.67
2023-04-13T19:22:55.343Z,2.28
2023-04-13T19:25:56.640Z,2.22
2023-04-13T19:28:57.976Z,2.47
2023-04-13T19:32:00.124Z,2.72
2023-04-13T19:35:01.668Z,2.63
2023-04-13T19:38:03.092Z,2.15
2023-04-13T19:41:04.382Z,2.60
2023-04-13T19:44:07.786Z,2.60
2023-04-13T19:47:09.069Z,2.38
2023-04-13T19:50:11.758Z,2.60
2023-04-13T19:53:13.018Z,2.85
2023-04-13T19:56:14.318Z,2.20
2023-04-13T19:59:16.320Z,1.90
2023-04-13T20:02:17.665Z,1.60
2023-04-13T20:05:19.862Z,2.28
2023-04-13T20:08:21.437Z,1.85
2023-04-13T20:11:22.709Z,2.20
2023-04-13T20:14:24.148Z,2.08
2023-04-13T20:17:25.514Z,1.90
2023-04-13T20:20:28.365Z,2.10
2023-04-13T20:23:33.194Z,2.65
2023-04-13T20:26:34.631Z,2.88
2023-04-13T20:29:36.216Z,2.92
2023-04-13T20:32:37.988Z,2.55
2023-04-13T20:35:39.343Z,2.50
2023-04-13T20:38:42.841Z,3.00
2023-04-13T20:41:55.027Z,3.05
2023-04-13T20:44:59.438Z,2.60
2023-04-13T20:48:48.561Z,3.33
2023-04-13T20:51:25.505Z,2.70
2023-04-13T20:54:27.022Z,3.10
2023-04-13T20:57:28.342Z,2.80
2023-04-13T21:00:29.665Z,3.92
2023-04-13T21:03:31.947Z,2.60
2023-04-13T21:06:35.091Z,3.85
2023-04-13T21:09:37.034Z,4.40
2023-04-13T21:12:38.318Z,3.50
2023-04-13T21:15:39.589Z,3.17
2023-04-13T21:18:41.865Z,3.58
2023-04-13T21:21:43.150Z,5.05
2023-04-13T21:24:44.770Z,2.30
2023-04-13T21:27:46.007Z,2.70
2023-04-13T21:30:47.328Z,2.85
2023-04-13T21:33:48.560Z,2.40
2023-04-13T21:36:52.077Z,2.70
2023-04-13T21:39:54.662Z,2.67
2023-04-13T21:42:55.931Z,3.15
2023-04-13T21:45:58.269Z,2.80
2023-04-13T21:48:59.898Z,2.88
2023-04-13T21:52:01.364Z,2.65
2023-04-13T21:55:03.994Z,3.30
2023-04-13T21:58:05.538Z,3.17
2023-04-13T22:01:07.242Z,3.13
2023-04-13T22:04:08.733Z,3.00
2023-04-13T22:07:10.108Z,3.35
2023-04-13T22:10:11.466Z,3.08
2023-04-13T22:13:12.728Z,2.92
2023-04-13T22:16:14.045Z,2.70
2023-04-13T22:19:15.363Z,1.83
2023-04-13T22:22:16.681Z,1.85
2023-04-13T22:25:17.957Z,3.05
2023-04-13T22:28:19.349Z,2.42
2023-04-13T22:31:20.686Z,3.00
2023-04-13T22:34:21.975Z,2.38
2023-04-13T22:37:23.290Z,3.80
2023-04-13T22:40:24.629Z,3.17
2023-04-13T22:43:26.035Z,2.53
2023-04-13T22:46:27.357Z,2.72
2023-04-13T22:49:29.732Z,2.67
2023-04-13T22:52:31.232Z,2.47
2023-04-13T22:55:32.601Z,2.67
2023-04-13T22:58:33.857Z,2.72
2023-04-13T23:01:35.420Z,3.95
2023-04-13T23:04:37.154Z,3.08
2023-04-13T23:07:38.559Z,3.45
2023-04-13T23:10:39.848Z,2.55
2023-04-13T23:13:41.758Z,2.92
2023-04-13T23:16:43.073Z,2.83
2023-04-13T23:19:44.364Z,2.42
2023-04-13T23:22:45.796Z,2.60
2023-04-13T23:25:50.395Z,2.95
2023-04-13T23:28:51.750Z,2.92
2023-04-13T23:31:58.980Z,1.83
2023-04-13T23:35:01.256Z,2.67
2023-04-13T23:38:02.589Z,2.95
2023-04-13T23:41:03.871Z,3.25
2023-04-13T23:44:05.256Z,2.53
2023-04-13T23:47:06.646Z,2.83
2023-04-13T23:50:08.723Z,1.83
2023-04-13T23:53:10.206Z,4.03
2023-04-13T23:56:11.846Z,2.58
2023-04-13T23:59:13.122Z,2.50
